createdAt,value
2023-01-21T00:00:05.161Z,102740.03
2023-01-21T00:02:08.031Z,102740.91
2023-01-21T00:04:09.732Z,102742.63
2023-01-21T00:06:11.925Z,102747.00
2023-01-21T00:08:13.547Z,102758.59
2023-01-21T00:10:17.075Z,102763.88
2023-01-21T00:12:19.123Z,102761.94
2023-01-21T00:14:20.712Z,102763.66
2023-01-21T00:16:22.335Z,102765.41
2023-01-21T00:18:24.098Z,102759.09
2023-01-21T00:20:25.699Z,102764.53
2023-01-21T00:22:27.423Z,102762.59
2023-01-21T00:24:28.964Z,102776.78
2023-01-21T00:26:32.004Z,102780.22
2023-01-21T00:28:35.698Z,102782.91
2023-01-21T00:30:37.392Z,102771.31
2023-01-21T00:32:39.023Z,102778.41
2023-01-21T00:34:40.666Z,102784.53
2023-01-21T00:36:42.263Z,102781.88
2023-01-21T00:38:44.320Z,102791.59
2023-01-21T00:40:46.060Z,102796.00
2023-01-21T00:42:49.008Z,102790.56
2023-01-21T00:44:50.588Z,102791.31
2023-01-21T00:46:53.278Z,102800.22
2023-01-21T00:48:54.838Z,102800.97
2023-01-21T00:50:56.738Z,102795.53
2023-01-21T00:52:58.268Z,102800.81
2023-01-21T00:54:59.997Z,102804.31
2023-01-21T00:57:01.669Z,102808.72
2023-01-21T00:59:05.070Z,102801.63
2023-01-21T01:01:09.128Z,102798.78
2023-01-21T01:03:10.984Z,102810.38
2023-01-21T01:05:12.539Z,102817.44
2023-01-21T01:07:15.509Z,102818.31
2023-01-21T01:09:18.464Z,102811.22
2023-01-21T01:11:27.479Z,102812.75
2023-01-21T01:13:29.942Z,102817.16
2023-01-21T01:15:37.152Z,102811.78
2023-01-21T01:17:40.041Z,102816.09
2023-01-21T01:19:41.981Z,102822.44
2023-01-21T01:21:46.776Z,102809.84
2023-01-21T01:23:49.748Z,102816.88
2023-01-21T01:25:55.491Z,102822.13
2023-01-21T01:27:57.065Z,102821.16
2023-01-21T01:29:58.629Z,102818.47
2023-01-21T01:32:01.553Z,102814.00
2023-01-21T01:34:03.277Z,102825.56
2023-01-21T01:36:07.176Z,102818.41
2023-01-21T01:38:08.793Z,102819.34
2023-01-21T01:40:11.595Z,102822.03
2023-01-21T01:42:14.488Z,102826.53
2023-01-21T01:44:53.923Z,102829.13
2023-01-21T01:46:58.683Z,102823.97
2023-01-21T01:49:09.666Z,102820.41
2023-01-21T01:51:14.256Z,102827.59
2023-01-21T01:53:18.684Z,102826.72
2023-01-21T01:55:20.660Z,102824.03
2023-01-21T01:57:27.618Z,102827.69
2023-01-21T01:59:30.940Z,102825.09
2023-01-21T02:01:33.086Z,102828.63
2023-01-21T02:03:40.254Z,102825.94
2023-01-21T02:05:44.205Z,102823.25
2023-01-21T02:07:45.946Z,102824.25
2023-01-21T02:09:47.887Z,102827.78
2023-01-21T02:11:49.575Z,102833.16
2023-01-21T02:13:54.147Z,102827.69
2023-01-21T02:16:08.332Z,102826.72
2023-01-21T02:18:20.748Z,102833.03
2023-01-21T02:20:56.843Z,102842.72
2023-01-21T02:23:08.612Z,102839.25
2023-01-21T02:25:44.224Z,102846.34
2023-01-21T02:27:54.433Z,102847.38
2023-01-21T02:30:37.805Z,102849.22
2023-01-21T02:33:10.732Z,102852.88
2023-01-21T02:35:18.751Z,102857.44
2023-01-21T02:37:29.923Z,102867.41
2023-01-21T02:39:45.837Z,102855.75
2023-01-21T02:42:00.551Z,102868.28
2023-01-21T02:44:13.540Z,102864.81
2023-01-21T02:46:19.990Z,102877.47
2023-01-21T02:48:31.292Z,102881.00
2023-01-21T02:50:36.159Z,102883.88
2023-01-21T02:52:37.871Z,102883.22
2023-01-21T02:54:49.332Z,102889.31
2023-01-21T02:56:54.981Z,102885.97
2023-01-21T02:59:02.850Z,102890.59
2023-01-21T03:01:14.628Z,102893.25
2023-01-21T03:03:34.331Z,102896.97
2023-01-21T03:05:53.542Z,102894.41
2023-01-21T03:08:06.674Z,102895.44
2023-01-21T03:10:15.282Z,102894.88
2023-01-21T03:12:31.957Z,102897.53
2023-01-21T03:14:40.548Z,102901.38
2023-01-21T03:16:47.243Z,102904.22
2023-01-21T03:18:55.117Z,102900.00
2023-01-21T03:20:59.693Z,102899.22
2023-01-21T03:23:05.421Z,102899.50
2023-01-21T03:25:09.193Z,102909.38
2023-01-21T03:27:16.311Z,102905.22
2023-01-21T03:29:21.488Z,102903.59
2023-01-21T03:31:27.775Z,102904.63
2023-01-21T03:33:33.224Z,102907.50
2023-01-21T03:35:40.547Z,102908.63
2023-01-21T03:37:46.883Z,102907.94
2023-01-21T03:39:53.765Z,102909.75
2023-01-21T03:41:55.531Z,102908.25
2023-01-21T03:43:57.026Z,102915.47
2023-01-21T03:46:04.548Z,102920.06
2023-01-21T03:48:16.219Z,102933.53
2023-01-21T03:50:22.515Z,102934.59
2023-01-21T03:52:26.858Z,102945.28
2023-01-21T03:54:28.615Z,102943.56
2023-01-21T03:56:30.279Z,102945.56
2023-01-21T03:58:34.268Z,102938.38
2023-01-21T04:00:35.867Z,102947.28
2023-01-21T04:02:37.434Z,102942.00
2023-01-21T04:04:39.030Z,102942.94
2023-01-21T04:06:40.538Z,102937.72
2023-01-21T04:08:43.821Z,102938.66
2023-01-21T04:10:45.610Z,102945.91
2023-01-21T04:12:47.171Z,102955.75
2023-01-21T04:14:48.932Z,102962.06
2023-01-21T04:16:50.569Z,102959.44
2023-01-21T04:18:52.191Z,102954.09
2023-01-21T04:20:53.954Z,102962.13
2023-01-21T04:22:55.519Z,102971.03
2023-01-21T04:24:58.460Z,102983.53
2023-01-21T04:27:01.209Z,102984.50
2023-01-21T04:29:03.486Z,102983.53
2023-01-21T04:31:05.268Z,102979.91
2023-01-21T04:33:07.093Z,102980.78
2023-01-21T04:35:09.530Z,102985.09
2023-01-21T04:37:11.077Z,102970.84
2023-01-21T04:39:12.683Z,102973.44
2023-01-21T04:41:15.641Z,102970.78
2023-01-21T04:43:17.403Z,102984.16
2023-01-21T04:45:21.621Z,102975.25
2023-01-21T04:47:23.420Z,102969.91
2023-01-21T04:49:25.177Z,102967.22
2023-01-21T04:51:26.833Z,102980.59
2023-01-21T04:53:28.405Z,102984.16
2023-01-21T04:55:29.948Z,102985.03
2023-01-21T04:57:33.219Z,102992.09
2023-01-21T04:59:35.081Z,102999.16
2023-01-21T05:01:36.634Z,102997.34
2023-01-21T05:03:38.191Z,103001.69
2023-01-21T05:05:39.837Z,102996.41
2023-01-21T05:07:43.966Z,103001.59
2023-01-21T05:09:45.597Z,103001.59
2023-01-21T05:11:47.378Z,103004.19
2023-01-21T05:13:53.087Z,103001.59
2023-01-21T05:15:54.640Z,103010.41
2023-01-21T05:17:56.346Z,102999.72
2023-01-21T05:19:58.016Z,103007.81
2023-01-21T05:21:59.596Z,103016.59
2023-01-21T05:24:01.152Z,103016.59
2023-01-21T05:26:03.057Z,103010.41
2023-01-21T05:28:05.044Z,103021.97
2023-01-21T05:30:10.282Z,103019.28
2023-01-21T05:32:11.846Z,103021.13
2023-01-21T05:34:13.490Z,103020.16
2023-01-21T05:36:15.146Z,103017.56
2023-01-21T05:38:22.390Z,103021.13
2023-01-21T05:40:23.923Z,103028.28
2023-01-21T05:42:25.529Z,103023.94
2023-01-21T05:44:29.333Z,103026.63
2023-01-21T05:46:32.364Z,103032.09
2023-01-21T05:48:34.004Z,103029.41
2023-01-21T05:50:38.179Z,103030.34
2023-01-21T05:52:41.991Z,103027.66
2023-01-21T05:54:59.983Z,103031.22
2023-01-21T05:57:05.818Z,103030.34
2023-01-21T05:59:08.866Z,103031.28
2023-01-21T06:01:11.826Z,103032.09
2023-01-21T06:03:15.407Z,103035.63
2023-01-21T06:05:17.125Z,103036.50
2023-01-21T06:07:18.851Z,103038.13
2023-01-21T06:09:20.676Z,103033.72
2023-01-21T06:11:28.103Z,103033.53
2023-01-21T06:13:29.667Z,103035.09
2023-01-21T06:15:31.654Z,103030.44
2023-01-21T06:17:33.301Z,103032.91
2023-01-21T06:19:40.455Z,103023.88
2023-01-21T06:21:42.173Z,103034.22
2023-01-21T06:23:43.809Z,103033.97
2023-01-21T06:25:45.513Z,103026.63
2023-01-21T06:27:47.057Z,103034.47
2023-01-21T06:29:48.758Z,103033.25
2023-01-21T06:31:50.470Z,103039.38
2023-01-21T06:33:52.292Z,103043.53
2023-01-21T06:35:55.151Z,103047.66
2023-01-21T06:37:56.702Z,103047.47
2023-01-21T06:39:58.322Z,103047.22
2023-01-21T06:41:59.837Z,103043.31
2023-01-21T06:44:01.476Z,103044.84
2023-01-21T06:46:03.374Z,103051.75
2023-01-21T06:48:11.561Z,103055.13
2023-01-21T06:50:15.194Z,103054.84
2023-01-21T06:52:18.189Z,103059.88
2023-01-21T06:54:20.263Z,103065.78
2023-01-21T06:56:22.146Z,103068.22
2023-01-21T06:58:23.781Z,103076.75
2023-01-21T07:00:25.610Z,103078.28
2023-01-21T07:02:28.918Z,103079.75
2023-01-21T07:04:30.630Z,103075.06
2023-01-21T07:06:34.210Z,103085.41
2023-01-21T07:17:39.460Z,103093.19
2023-01-21T07:19:42.869Z,103092.25
2023-01-21T07:21:44.548Z,103091.94
2023-01-21T07:23:46.559Z,103088.31
2023-01-21T07:25:48.363Z,103091.66
2023-01-21T07:27:49.945Z,103094.16
2023-01-21T07:29:51.561Z,103097.50
2023-01-21T07:31:53.522Z,103097.44
2023-01-21T07:33:57.009Z,103103.47
2023-01-21T07:35:58.681Z,103105.09
2023-01-21T07:38:00.384Z,103103.28
2023-01-21T07:40:01.947Z,103102.13
2023-01-21T07:42:03.947Z,103103.75
2023-01-21T07:44:05.935Z,103100.97
2023-01-21T07:46:07.581Z,103108.84
2023-01-21T07:48:09.464Z,103106.94
2023-01-21T07:50:12.792Z,103113.06
2023-01-21T07:52:14.342Z,103111.16
2023-01-21T07:54:15.995Z,103111.03
2023-01-21T07:56:17.888Z,103118.91
2023-01-21T07:58:19.566Z,103110.78
2023-01-21T08:00:21.993Z,103110.78
2023-01-21T08:02:23.797Z,103099.91
2023-01-21T08:04:25.510Z,103111.44
2023-01-21T08:06:28.422Z,103110.56
2023-01-21T08:08:30.117Z,103106.81
2023-01-21T08:10:31.697Z,103110.47
2023-01-21T08:12:33.355Z,103110.38
2023-01-21T08:14:35.082Z,103112.09
2023-01-21T08:16:38.592Z,103115.75
2023-01-21T08:18:40.509Z,103115.66
2023-01-21T08:20:44.632Z,103112.97
2023-01-21T08:22:47.874Z,103128.13
2023-01-21T08:24:49.447Z,103124.47
2023-01-21T08:26:51.107Z,103125.44
2023-01-21T08:28:53.616Z,103119.22
2023-01-21T08:30:55.395Z,103126.19
2023-01-21T08:32:57.654Z,103114.50
2023-01-21T08:34:59.138Z,103113.34
2023-01-21T08:37:00.726Z,103112.28
2023-01-21T08:39:03.771Z,103112.94
2023-01-21T08:41:05.699Z,103128.78
2023-01-21T08:43:07.290Z,103128.50
2023-01-21T08:45:10.152Z,103117.63
2023-01-21T08:47:11.879Z,103130.69
2023-01-21T08:49:13.630Z,103118.75
2023-01-21T08:51:15.872Z,103119.34
2023-01-21T08:53:17.751Z,103124.41
2023-01-21T08:55:21.858Z,103117.88
2023-01-21T08:57:23.867Z,103121.13
2023-01-21T08:59:25.623Z,103133.31
2023-01-21T09:01:27.217Z,103133.84
2023-01-21T09:03:28.770Z,103131.84
2023-01-21T09:05:30.306Z,103135.19
2023-01-21T09:07:31.968Z,103129.69
2023-01-21T09:09:33.706Z,103130.47
2023-01-21T09:11:36.611Z,103129.41
2023-01-21T09:13:39.787Z,103126.63
2023-01-21T09:15:42.993Z,103123.72
2023-01-21T09:17:45.552Z,103128.97
2023-01-21T09:19:47.219Z,103128.03
2023-01-21T09:21:48.752Z,103129.63
2023-01-21T09:23:50.354Z,103125.03
2023-01-21T09:25:52.047Z,103128.47
2023-01-21T09:27:54.950Z,103131.94
2023-01-21T09:29:56.486Z,103132.69
2023-01-21T09:31:58.443Z,103133.47
2023-01-21T09:34:01.668Z,103136.91
2023-01-21T09:36:05.669Z,103144.75
2023-01-21T09:38:07.580Z,103137.47
2023-01-21T09:40:16.415Z,103141.75
2023-01-21T09:42:22.656Z,103137.13
2023-01-21T09:44:31.371Z,103133.28
2023-01-21T09:46:40.099Z,103132.31
2023-01-21T09:48:45.083Z,103124.91
2023-01-21T09:50:49.543Z,103131.88
2023-01-21T09:52:53.432Z,103134.47
2023-01-21T09:54:55.836Z,103137.91
2023-01-21T09:57:26.442Z,103133.97
2023-01-21T09:59:47.418Z,103137.41
2023-01-21T10:01:51.547Z,103136.56
2023-01-21T10:03:58.653Z,103138.06
2023-01-21T10:06:13.696Z,103135.19
2023-01-21T10:08:24.818Z,103137.75
2023-01-21T10:10:38.415Z,103138.50
2023-01-21T10:12:59.851Z,103137.34
2023-01-21T10:15:26.408Z,103135.16
2023-01-21T10:17:40.498Z,103137.88
2023-01-21T10:19:47.340Z,103144.75
2023-01-21T10:21:55.138Z,103144.66
2023-01-21T10:24:00.812Z,103141.75
2023-01-21T10:26:08.426Z,103133.47
2023-01-21T10:28:14.443Z,103135.06
2023-01-21T10:30:24.707Z,103133.03
2023-01-21T10:32:27.755Z,103138.31
2023-01-21T10:34:30.357Z,103136.25
2023-01-21T10:37:03.572Z,103145.75
2023-01-21T10:39:14.221Z,103138.34
2023-01-21T10:41:32.860Z,103141.66
2023-01-21T10:43:44.384Z,103141.31
2023-01-21T10:45:57.738Z,103145.31
2023-01-21T10:48:08.652Z,103140.34
2023-01-21T10:50:28.391Z,103140.53
2023-01-21T10:52:37.344Z,103150.22
2023-01-21T10:54:49.131Z,103139.91
2023-01-21T10:57:02.125Z,103139.69
2023-01-21T10:59:08.173Z,103143.00
2023-01-21T11:01:18.740Z,103140.84
2023-01-21T11:03:29.313Z,103146.88
2023-01-21T11:05:32.507Z,103139.44
2023-01-21T11:07:39.823Z,103133.69
2023-01-21T11:09:45.678Z,103143.28
2023-01-21T11:11:47.406Z,103138.63
2023-01-21T11:13:49.034Z,103144.03
2023-01-21T11:15:53.630Z,103144.78
2023-01-21T11:17:56.836Z,103128.59
2023-01-21T11:20:00.936Z,103139.28
2023-01-21T11:22:20.031Z,103132.16
2023-01-21T11:24:23.464Z,103123.97
2023-01-21T11:26:27.384Z,103136.59
2023-01-21T11:28:29.529Z,103133.03
2023-01-21T11:30:49.603Z,103128.50
2023-01-21T11:32:52.408Z,103123.09
2023-01-21T11:35:03.171Z,103119.53
2023-01-21T11:37:07.583Z,103120.50
2023-01-21T11:39:14.715Z,103125.91
2023-01-21T11:41:22.611Z,103128.50
2023-01-21T11:43:40.435Z,103114.03
2023-01-21T11:45:42.009Z,103113.28
2023-01-21T11:47:48.652Z,103101.63
2023-01-21T11:49:50.198Z,103112.41
2023-01-21T11:52:12.561Z,103109.63
2023-01-21T11:54:15.921Z,103109.84
2023-01-21T11:56:18.097Z,103109.84
2023-01-21T11:58:23.807Z,103099.06
2023-01-21T12:00:27.241Z,103104.56
2023-01-21T12:02:34.755Z,103099.25
2023-01-21T12:04:37.317Z,103109.06
2023-01-21T12:06:47.902Z,103102.72
2023-01-21T12:08:54.426Z,103098.28
2023-01-21T12:10:58.744Z,103093.88
2023-01-21T12:13:14.720Z,103095.50
2023-01-21T12:15:33.563Z,103090.09
2023-01-21T12:17:49.585Z,103091.81
2023-01-21T12:20:03.196Z,103090.97
2023-01-21T12:22:27.665Z,103090.84
2023-01-21T12:24:43.610Z,103082.88
2023-01-21T12:26:50.256Z,103092.91
2023-01-21T12:29:08.590Z,103090.09
2023-01-21T12:31:18.831Z,103086.53
2023-01-21T12:33:41.450Z,103091.94
2023-01-21T12:35:47.642Z,103079.56
2023-01-21T12:37:53.645Z,103091.94
2023-01-21T12:40:02.420Z,103082.97
2023-01-21T12:42:14.638Z,103092.81
2023-01-21T12:44:25.019Z,103086.66
2023-01-21T12:46:31.971Z,103085.69
2023-01-21T12:48:37.667Z,103092.91
2023-01-21T12:50:42.820Z,103087.50
2023-01-21T12:52:51.758Z,103090.09
2023-01-21T12:55:05.055Z,103086.53
2023-01-21T12:57:16.422Z,103090.19
2023-01-21T12:59:25.429Z,103092.03
2023-01-21T13:01:44.805Z,103097.34
2023-01-21T13:03:55.833Z,103093.88
2023-01-21T13:06:02.460Z,103087.66
2023-01-21T13:08:30.230Z,103092.03
2023-01-21T13:10:37.951Z,103094.88
2023-01-21T13:12:43.963Z,103094.97
2023-01-21T13:14:51.103Z,103100.34
2023-01-21T13:16:57.546Z,103098.44
2023-01-21T13:18:59.899Z,103105.66
2023-01-21T13:21:08.612Z,103100.25
2023-01-21T13:23:24.614Z,103102.09
2023-01-21T13:25:34.228Z,103101.22
2023-01-21T13:27:44.631Z,103095.94
2023-01-21T13:29:56.205Z,103103.81
2023-01-21T13:32:19.576Z,103103.81
2023-01-21T13:34:29.088Z,103107.47
2023-01-21T13:36:45.471Z,103096.78
2023-01-21T13:38:54.768Z,103112.88
2023-01-21T13:41:09.904Z,103105.88
2023-01-21T13:43:29.197Z,103105.66
2023-01-21T13:45:45.923Z,103102.19
2023-01-21T13:48:04.688Z,103098.53
2023-01-21T13:50:18.531Z,103103.81
2023-01-21T13:52:25.908Z,103109.22
2023-01-21T13:54:45.030Z,103108.22
2023-01-21T13:57:00.518Z,103110.91
2023-01-21T13:59:14.244Z,103102.94
2023-01-21T14:01:21.839Z,103113.75
2023-01-21T14:03:34.837Z,103113.84
2023-01-21T14:05:41.256Z,103111.03
2023-01-21T14:07:47.754Z,103107.59
2023-01-21T14:09:54.762Z,103106.72
2023-01-21T14:12:09.469Z,103106.63
2023-01-21T14:14:46.979Z,103102.81
2023-01-21T14:17:04.624Z,103101.97
2023-01-21T14:19:30.960Z,103099.25
2023-01-21T14:21:51.947Z,103101.13
2023-01-21T14:24:15.249Z,103111.91
2023-01-21T14:26:33.101Z,103101.22
2023-01-21T14:28:40.360Z,103104.03
2023-01-21T14:30:48.700Z,103104.03
2023-01-21T14:32:53.869Z,103092.41
2023-01-21T14:35:08.885Z,103099.50
2023-01-21T14:37:17.152Z,103090.66
2023-01-21T14:39:33.110Z,103088.84
2023-01-21T14:42:02.097Z,103097.56
2023-01-21T14:44:03.899Z,103088.72
2023-01-21T14:46:28.940Z,103088.59
2023-01-21T14:48:32.607Z,103094.22
2023-01-21T14:50:46.229Z,103092.50
2023-01-21T14:52:47.997Z,103088.94
2023-01-21T14:54:49.647Z,103088.94
2023-01-21T14:57:01.661Z,103082.59
2023-01-21T14:59:07.791Z,103084.41
2023-01-21T15:01:29.970Z,103086.16
2023-01-21T15:03:31.834Z,103081.81
2023-01-21T15:05:35.084Z,103088.06
2023-01-21T15:07:41.218Z,103087.22
2023-01-21T15:09:47.084Z,103088.22
2023-01-21T15:11:52.967Z,103084.50
2023-01-21T15:14:04.027Z,103091.72
2023-01-21T15:16:14.381Z,103088.22
2023-01-21T15:18:34.115Z,103094.44
2023-01-21T15:20:56.883Z,103091.72
2023-01-21T15:23:21.358Z,103098.13
2023-01-21T15:25:30.019Z,103092.84
2023-01-21T15:27:31.593Z,103101.16
2023-01-21T15:29:35.753Z,103097.50
2023-01-21T15:31:43.576Z,103102.97
2023-01-21T15:33:48.901Z,103100.41
2023-01-21T15:35:53.146Z,103105.81
2023-01-21T15:38:03.083Z,103104.06
2023-01-21T15:40:23.850Z,103102.34
2023-01-21T15:42:35.002Z,103102.25
2023-01-21T15:44:49.463Z,103106.00
2023-01-21T15:46:58.938Z,103115.19
2023-01-21T15:49:23.517Z,103122.31
2023-01-21T15:51:37.752Z,103121.53
2023-01-21T15:54:15.019Z,103111.63
2023-01-21T15:56:36.828Z,103121.53
2023-01-21T15:58:51.118Z,103118.22
2023-01-21T16:01:10.054Z,103124.38
2023-01-21T16:03:21.894Z,103127.16
2023-01-21T16:05:34.122Z,103128.91
2023-01-21T16:07:47.985Z,103121.03
2023-01-21T16:10:13.888Z,103123.59
2023-01-21T16:12:26.864Z,103127.38
2023-01-21T16:14:44.952Z,103130.94
2023-01-21T16:17:04.549Z,103127.50
2023-01-21T16:19:09.276Z,103128.47
2023-01-21T16:21:13.205Z,103131.19
2023-01-21T16:23:19.085Z,103138.41
2023-01-21T16:25:23.310Z,103141.09
2023-01-21T16:27:27.356Z,103136.75
2023-01-21T16:29:30.217Z,103135.81
2023-01-21T16:31:45.982Z,103129.44
2023-01-21T16:33:49.523Z,103130.41
2023-01-21T16:35:53.830Z,103131.38
2023-01-21T16:38:21.758Z,103136.66
2023-01-21T16:40:30.146Z,103134.94
2023-01-21T16:42:34.882Z,103129.53
2023-01-21T16:44:37.153Z,103132.38
2023-01-21T16:46:40.849Z,103118.75
2023-01-21T16:48:42.875Z,103125.03
2023-01-21T16:50:47.974Z,103126.84
2023-01-21T16:52:50.927Z,103123.28
2023-01-21T16:54:55.448Z,103128.69
2023-01-21T16:56:59.296Z,103124.28
2023-01-21T16:59:00.919Z,103107.13
2023-01-21T17:01:09.715Z,103118.91
2023-01-21T17:03:13.222Z,103112.50
2023-01-21T17:05:15.321Z,103116.19
2023-01-21T17:07:21.736Z,103118.91
2023-01-21T17:09:28.295Z,103119.75
2023-01-21T17:11:32.608Z,103117.06
2023-01-21T17:13:38.015Z,103123.41
2023-01-21T17:15:42.383Z,103126.13
2023-01-21T17:17:44.208Z,103129.78
2023-01-21T17:19:45.719Z,103119.00
2023-01-21T17:21:50.117Z,103119.84
2023-01-21T17:23:54.567Z,103125.25
2023-01-21T17:26:00.649Z,103127.06
2023-01-21T17:28:17.081Z,103143.16
2023-01-21T17:30:27.312Z,103137.84
2023-01-21T17:32:32.568Z,103139.59
2023-01-21T17:34:37.027Z,103133.44
2023-01-21T17:36:40.381Z,103123.50
2023-01-21T17:38:44.051Z,103135.28
2023-01-21T17:40:59.918Z,103132.38
2023-01-21T17:43:16.012Z,103134.19
2023-01-21T17:45:25.349Z,103137.00
2023-01-21T17:47:31.214Z,103140.69
2023-01-21T17:49:34.077Z,103140.69
2023-01-21T17:51:37.077Z,103133.56
2023-01-21T17:53:50.001Z,103127.31
2023-01-21T17:56:00.174Z,103128.03
2023-01-21T17:58:03.143Z,103122.78
2023-01-21T18:00:25.095Z,103120.81
2023-01-21T18:02:26.664Z,103134.53
2023-01-21T18:04:28.712Z,103134.53
2023-01-21T18:06:30.259Z,103130.00
2023-01-21T18:08:31.947Z,103129.13
2023-01-21T18:10:33.492Z,103129.13
2023-01-21T18:12:35.032Z,103143.47
2023-01-21T18:14:36.562Z,103130.00
2023-01-21T18:16:39.800Z,103140.78
2023-01-21T18:18:41.771Z,103130.09
2023-01-21T18:20:45.963Z,103135.47
2023-01-21T18:22:48.231Z,103131.81
2023-01-21T18:24:49.971Z,103133.66
2023-01-21T18:26:52.044Z,103127.31
2023-01-21T18:28:53.619Z,103126.44
2023-01-21T18:30:57.431Z,103126.44
2023-01-21T18:33:00.670Z,103127.31
2023-01-21T18:35:08.193Z,103127.41
2023-01-21T18:37:13.000Z,103135.38
2023-01-21T18:39:17.882Z,103125.47
2023-01-21T18:41:25.283Z,103134.66
2023-01-21T18:43:26.861Z,103129.13
2023-01-21T18:45:28.851Z,103135.38
2023-01-21T18:47:36.539Z,103134.28
2023-01-21T18:49:39.722Z,103128.03
2023-01-21T18:51:41.438Z,103133.44
2023-01-21T18:53:43.030Z,103137.00
2023-01-21T18:55:49.178Z,103134.28
2023-01-21T18:57:51.284Z,103139.69
2023-01-21T18:59:52.956Z,103135.38
2023-01-21T19:01:54.744Z,103143.16
2023-01-21T19:03:56.565Z,103144.13
2023-01-21T19:05:59.470Z,103145.94
2023-01-21T19:08:01.725Z,103139.59
2023-01-21T19:10:07.010Z,103153.94
2023-01-21T19:12:10.465Z,103148.63
2023-01-21T19:14:12.016Z,103145.84
2023-01-21T19:16:16.400Z,103146.56
2023-01-21T19:18:18.091Z,103145.84
2023-01-21T19:20:21.821Z,103143.03
2023-01-21T19:22:25.809Z,103142.06
2023-01-21T19:24:27.414Z,103141.09
2023-01-21T19:26:29.103Z,103149.19
2023-01-21T19:28:31.590Z,103145.53
2023-01-21T19:30:33.313Z,103152.75
2023-01-21T19:32:36.549Z,103150.91
2023-01-21T19:34:42.689Z,103160.69
2023-01-21T19:36:44.263Z,103154.44
2023-01-21T19:38:50.961Z,103153.47
2023-01-21T19:40:52.608Z,103159.72
2023-01-21T19:42:54.847Z,103153.38
2023-01-21T19:44:56.422Z,103152.38
2023-01-21T19:47:00.660Z,103152.38
2023-01-21T19:49:13.209Z,103154.13
2023-01-21T19:51:14.920Z,103144.28
2023-01-21T19:53:18.093Z,103151.56
2023-01-21T19:55:22.962Z,103150.56
2023-01-21T19:57:25.190Z,103151.56
2023-01-21T19:59:26.923Z,103148.72
2023-01-21T20:01:28.695Z,103148.63
2023-01-21T20:03:30.749Z,103146.91
2023-01-21T20:05:34.452Z,103149.59
2023-01-21T20:07:38.160Z,103150.47
2023-01-21T20:09:39.767Z,103146.91
2023-01-21T20:11:43.094Z,103144.19
2023-01-21T20:13:47.600Z,103153.88
2023-01-21T20:15:51.815Z,103157.44
2023-01-21T20:17:55.405Z,103157.59
2023-01-21T20:19:57.100Z,103168.13
2023-01-21T20:22:03.023Z,103166.31
2023-01-21T20:24:05.093Z,103167.16
2023-01-21T20:26:11.066Z,103159.09
2023-01-21T20:28:18.022Z,103169.88
2023-01-21T20:30:24.177Z,103172.56
2023-01-21T20:32:25.994Z,103174.16
2023-01-21T20:34:27.555Z,103163.38
2023-01-21T20:36:50.637Z,103172.34
2023-01-21T20:38:53.490Z,103164.13
2023-01-21T20:40:55.206Z,103170.91
2023-01-21T20:42:57.577Z,103170.78
2023-01-21T20:44:59.177Z,103161.75
2023-01-21T20:47:01.284Z,103174.25
2023-01-21T20:49:03.001Z,103168.84
2023-01-21T20:51:05.405Z,103161.00
2023-01-21T20:53:11.925Z,103174.25
2023-01-21T20:55:14.294Z,103168.84
2023-01-21T20:57:16.806Z,103169.81
2023-01-21T20:59:18.405Z,103175.22
2023-01-21T21:01:21.910Z,103191.41
2023-01-21T21:03:23.508Z,103180.59
2023-01-21T21:05:27.526Z,103184.28
2023-01-21T21:07:29.410Z,103179.75
2023-01-21T21:09:32.361Z,103186.00
2023-01-21T21:11:33.946Z,103180.59
2023-01-21T21:13:36.007Z,103178.00
2023-01-21T21:15:38.463Z,103175.22
2023-01-21T21:17:40.036Z,103169.81
2023-01-21T21:19:41.637Z,103187.84
2023-01-21T21:21:43.534Z,103182.44
2023-01-21T21:23:45.790Z,103186.88
2023-01-21T21:25:48.839Z,103178.88
2023-01-21T21:27:50.424Z,103180.50
2023-01-21T21:29:52.015Z,103181.47
2023-01-21T21:31:53.704Z,103172.53
2023-01-21T21:33:55.285Z,103179.66
2023-01-21T21:35:56.830Z,103183.22
2023-01-21T21:38:02.929Z,103170.69
2023-01-21T21:40:05.767Z,103183.22
2023-01-21T21:42:11.713Z,103178.69
2023-01-21T21:44:13.286Z,103188.59
2023-01-21T21:46:14.872Z,103179.50
2023-01-21T21:48:24.158Z,103175.00
2023-01-21T21:50:25.707Z,103174.13
2023-01-21T21:52:27.341Z,103178.69
2023-01-21T21:54:28.926Z,103180.38
2023-01-21T21:56:30.545Z,103174.03
2023-01-21T21:58:33.782Z,103175.84
2023-01-21T22:00:35.339Z,103175.84
2023-01-21T22:02:37.135Z,103178.44
2023-01-21T22:04:38.885Z,103167.75
2023-01-21T22:06:40.459Z,103175.84
2023-01-21T22:08:43.099Z,103183.84
2023-01-21T22:10:44.681Z,103174.88
2023-01-21T22:12:46.429Z,103183.84
2023-01-21T22:14:49.499Z,103181.16
2023-01-21T22:16:51.168Z,103175.63
2023-01-21T22:18:53.530Z,103184.72
2023-01-21T22:20:59.894Z,103193.53
2023-01-21T22:23:01.421Z,103177.34
2023-01-21T22:25:03.083Z,103183.63
2023-01-21T22:27:04.581Z,103182.75
2023-01-21T22:29:06.354Z,103180.91
2023-01-21T22:31:12.973Z,103180.91
2023-01-21T22:33:14.746Z,103178.22
2023-01-21T22:35:16.733Z,103177.34
2023-01-21T22:37:18.434Z,103180.06
2023-01-21T22:39:19.938Z,103187.28
2023-01-21T22:41:23.084Z,103184.59
2023-01-21T22:43:24.673Z,103181.88
2023-01-21T22:45:26.302Z,103182.84
2023-01-21T22:47:29.369Z,103174.75
2023-01-21T22:49:31.512Z,103179.19
2023-01-21T22:51:33.045Z,103182.84
2023-01-21T22:53:34.719Z,103168.53
2023-01-21T22:55:36.324Z,103176.50
2023-01-21T22:57:37.953Z,103183.63
2023-01-21T22:59:39.517Z,103176.41
2023-01-21T23:01:41.439Z,103174.66
2023-01-21T23:03:44.841Z,103163.78
2023-01-21T23:05:47.014Z,103169.16
2023-01-21T23:07:48.638Z,103156.53
2023-01-21T23:09:50.180Z,103172.69
2023-01-21T23:11:53.171Z,103178.09
2023-01-21T23:13:55.080Z,103170.78
2023-01-21T23:15:56.913Z,103171.72
2023-01-21T23:17:58.650Z,103165.47
2023-01-21T23:20:01.680Z,103169.91
2023-01-21T23:22:03.456Z,103172.50
2023-01-21T23:24:05.670Z,103168.06
2023-01-21T23:26:09.585Z,103174.19
2023-01-21T23:28:11.238Z,103168.81
2023-01-21T23:30:13.847Z,103162.44
2023-01-21T23:32:15.399Z,103165.28
2023-01-21T23:34:17.365Z,103160.84
2023-01-21T23:36:20.395Z,103165.16
2023-01-21T23:38:22.111Z,103163.31
2023-01-21T23:40:23.842Z,103158.78
2023-01-21T23:42:25.352Z,103166.88
2023-01-21T23:44:26.994Z,103156.97
2023-01-21T23:46:28.705Z,103162.34
2023-01-21T23:48:30.558Z,103167.84
2023-01-21T23:50:32.342Z,103164.19
2023-01-21T23:52:35.869Z,103160.72
2023-01-21T23:54:37.603Z,103159.66
2023-01-21T23:56:39.763Z,103150.69
2023-01-21T23:58:41.520Z,103146.16
